Time;durP1;ratioP1;P1;durP2;ratioP2;P2;SDS_P1;SDS_P2;PMS_P1;PMS_P2;Temp;Humidity;BMP_temperature;BMP_pressure;BME280_temperature;BME280_humidity;BME280_pressure;Samples;Min_cycle;Max_cycle;Signal;HPM_P1;HPM_P2
2022/12/21 00:00:03;;;;;;;53.78;23.60;;;5.90;99.90;;;;;;5074247;28;20828;-79
2022/12/21 00:02:50;;;;;;;64.63;24.45;;;5.80;99.90;;;;;;5055663;28;20052;-81
2022/12/21 00:05:36;;;;;;;77.38;25.90;;;5.80;99.90;;;;;;5072938;28;20060;-83
2022/12/21 00:08:22;;;;;;;77.57;28.35;;;5.80;99.90;;;;;;5060882;28;20060;-81
2022/12/21 00:11:11;;;;;;;62.72;26.25;;;5.70;99.90;;;;;;5090133;28;20067;-81
2022/12/21 00:13:59;;;;;;;73.65;26.02;;;5.70;99.90;;;;;;5078578;28;20079;-80
2022/12/21 00:16:45;;;;;;;68.32;25.60;;;5.60;99.90;;;;;;5074534;28;20055;-80
2022/12/21 00:19:32;;;;;;;122.80;29.92;;;5.50;99.90;;;;;;5062113;28;20635;-82
2022/12/21 00:22:18;;;;;;;336.05;49.78;;;5.50;99.90;;;;;;5097178;28;20048;-84
2022/12/21 00:25:04;;;;;;;377.63;49.17;;;5.40;99.90;;;;;;5075949;28;20047;-79
2022/12/21 00:27:51;;;;;;;458.98;55.70;;;5.40;99.90;;;;;;5075693;28;20377;-81
2022/12/21 00:30:37;;;;;;;378.38;44.45;;;5.20;99.90;;;;;;5075350;28;20519;-80
2022/12/21 00:33:23;;;;;;;400.50;48.92;;;5.20;99.90;;;;;;5093734;28;20052;-85
2022/12/21 00:36:15;;;;;;;325.42;44.20;;;5.00;99.90;;;;;;5102247;28;20051;-82
2022/12/21 00:39:02;;;;;;;346.60;46.83;;;4.90;99.90;;;;;;5096991;28;20074;-80
2022/12/21 00:41:48;;;;;;;244.07;34.95;;;4.90;99.90;;;;;;5074067;28;20505;-80
2022/12/21 00:44:34;;;;;;;204.52;32.50;;;4.80;99.90;;;;;;5075090;28;20492;-80
2022/12/21 00:47:20;;;;;;;287.20;36.92;;;4.80;99.90;;;;;;5093152;28;20629;-80
2022/12/21 00:50:07;;;;;;;370.25;46.88;;;4.70;99.90;;;;;;5077761;28;20407;-83
2022/12/21 00:52:53;;;;;;;275.00;37.70;;;4.60;99.90;;;;;;5079269;28;20048;-83
2022/12/21 00:55:39;;;;;;;267.60;36.60;;;4.50;99.90;;;;;;5075164;28;20048;-80
2022/12/21 00:58:27;;;;;;;197.35;28.95;;;4.50;99.90;;;;;;5076670;28;20040;-83
2022/12/21 01:01:17;;;;;;;262.65;32.65;;;4.50;99.90;;;;;;5082198;28;20052;-81
2022/12/21 01:04:04;;;;;;;301.15;33.40;;;4.40;99.90;;;;;;5093423;28;20124;-84
2022/12/21 01:06:50;;;;;;;299.80;35.88;;;4.40;99.90;;;;;;5083385;28;20126;-80
2022/12/21 01:09:36;;;;;;;288.55;37.70;;;4.40;99.90;;;;;;5089775;28;20054;-84
2022/12/21 01:12:22;;;;;;;306.55;37.95;;;4.40;99.90;;;;;;5053818;28;20504;-82
2022/12/21 01:15:09;;;;;;;222.63;30.92;;;4.40;99.90;;;;;;5057686;28;20078;-81
2022/12/21 01:17:55;;;;;;;330.55;39.55;;;4.30;99.90;;;;;;5053916;28;20535;-80
2022/12/21 01:20:44;;;;;;;329.77;38.80;;;4.30;99.90;;;;;;5077945;28;20045;-82
2022/12/21 01:23:30;;;;;;;277.20;34.05;;;4.20;99.90;;;;;;5058867;28;20083;-84
2022/12/21 01:26:17;;;;;;;228.40;27.25;;;4.20;99.90;;;;;;5054744;28;20041;-81
2022/12/21 01:29:04;;;;;;;129.23;19.05;;;4.20;99.90;;;;;;5054819;28;20055;-84
2022/12/21 01:31:50;;;;;;;257.02;33.00;;;4.20;99.90;;;;;;5054528;28;20048;-83
2022/12/21 01:34:36;;;;;;;324.08;41.47;;;4.20;99.90;;;;;;5060478;28;20052;-85
2022/12/21 01:37:23;;;;;;;331.13;39.63;;;4.10;99.90;;;;;;5079356;28;20582;-84
2022/12/21 01:40:10;;;;;;;408.98;41.08;;;4.10;99.90;;;;;;5060070;28;20088;-80
2022/12/21 01:42:56;;;;;;;289.50;33.50;;;4.10;99.90;;;;;;5082898;28;20099;-82
2022/12/21 01:45:43;;;;;;;416.92;45.88;;;4.10;99.90;;;;;;5057378;28;20087;-85
2022/12/21 01:48:29;;;;;;;299.17;36.33;;;4.20;99.90;;;;;;5042602;28;20052;-83
2022/12/21 01:51:16;;;;;;;237.63;35.47;;;4.10;99.90;;;;;;5062099;28;20847;-85
2022/12/21 01:54:14;;;;;;;115.32;24.35;;;4.20;99.90;;;;;;5073122;28;20433;-86
2022/12/21 01:57:03;;;;;;;250.23;33.50;;;4.20;99.90;;;;;;5054130;28;20492;-85
2022/12/21 01:59:54;;;;;;;123.00;22.67;;;4.20;99.90;;;;;;5053395;28;20052;-85
2022/12/21 02:02:46;;;;;;;165.15;24.23;;;4.10;99.90;;;;;;5071340;28;20048;-84
2022/12/21 02:05:32;;;;;;;232.80;31.83;;;4.10;99.90;;;;;;5080594;28;20048;-85
2022/12/21 02:08:19;;;;;;;256.98;34.67;;;4.00;99.90;;;;;;5055004;28;20052;-86
2022/12/21 02:11:06;;;;;;;177.45;25.30;;;4.00;99.90;;;;;;5066662;28;20129;-86
2022/12/21 02:13:52;;;;;;;286.38;32.80;;;4.00;99.90;;;;;;5073792;28;20044;-85
2022/12/21 02:16:42;;;;;;;154.80;21.55;;;4.00;99.90;;;;;;5044212;28;20131;-85
2022/12/21 02:19:31;;;;;;;89.65;15.80;;;3.90;99.90;;;;;;5068701;28;20051;-84
2022/12/21 02:22:37;;;;;;;227.88;30.92;;;3.90;99.90;;;;;;5090386;28;20569;-83
2022/12/21 02:25:51;;;;;;;322.33;39.03;;;3.90;99.90;;;;;;5076575;28;20097;-81
2022/12/21 02:29:13;;;;;;;298.30;37.30;;;3.80;99.90;;;;;;5076306;28;20044;-84
2022/12/21 02:32:15;;;;;;;121.10;20.73;;;3.80;99.90;;;;;;5077629;28;20075;-84
2022/12/21 02:35:07;;;;;;;204.48;31.20;;;3.80;99.90;;;;;;5075385;28;20580;-86
2022/12/21 02:38:22;;;;;;;154.15;27.67;;;3.70;99.90;;;;;;5091169;28;20529;-85
2022/12/21 02:41:42;;;;;;;198.98;33.90;;;3.70;99.90;;;;;;5058934;28;20105;-84
2022/12/21 02:44:34;;;;;;;133.77;25.38;;;3.70;99.90;;;;;;5089769;28;20047;-83
2022/12/21 02:47:34;;;;;;;182.95;27.88;;;3.70;99.90;;;;;;5099487;28;20055;-84
2022/12/21 02:50:29;;;;;;;181.02;26.25;;;3.70;99.90;;;;;;5095989;28;20151;-82
2022/12/21 02:53:25;;;;;;;212.77;30.55;;;3.70;99.90;;;;;;5090389;28;20821;-80
2022/12/21 02:56:19;;;;;;;392.55;53.55;;;3.70;99.90;;;;;;5071692;28;20048;-80
2022/12/21 02:59:07;;;;;;;294.15;42.38;;;3.70;99.90;;;;;;5075297;28;20036;-85
2022/12/21 03:02:18;;;;;;;192.40;30.25;;;3.70;99.90;;;;;;5098813;28;20062;-84
2022/12/21 03:05:20;;;;;;;239.68;34.67;;;3.70;99.90;;;;;;5042503;28;20488;-85
2022/12/21 03:08:15;;;;;;;218.55;30.35;;;3.70;99.90;;;;;;5089293;28;20503;-84
2022/12/21 03:11:03;;;;;;;240.57;32.90;;;3.70;99.90;;;;;;5089068;28;20059;-80
2022/12/21 03:14:10;;;;;;;206.65;31.00;;;3.70;99.90;;;;;;5099113;28;20040;-82
2022/12/21 03:17:24;;;;;;;275.70;37.75;;;3.60;99.90;;;;;;5094988;28;20476;-85
2022/12/21 03:20:38;;;;;;;161.93;25.40;;;3.60;99.90;;;;;;5090695;28;20091;-84
2022/12/21 03:23:50;;;;;;;343.40;41.40;;;3.60;99.90;;;;;;5090482;28;20534;-82
2022/12/21 03:26:53;;;;;;;173.48;25.38;;;3.60;99.90;;;;;;5091289;28;20048;-85
2022/12/21 03:29:47;;;;;;;148.65;22.25;;;3.60;99.90;;;;;;5095793;28;20100;-83
2022/12/21 03:33:01;;;;;;;192.10;30.92;;;3.50;99.90;;;;;;5072389;28;20131;-81
2022/12/21 03:36:02;;;;;;;252.43;35.75;;;3.50;99.90;;;;;;5072549;28;20052;-84
2022/12/21 03:38:59;;;;;;;241.38;35.03;;;3.50;99.90;;;;;;5075605;28;20064;-85
2022/12/21 03:41:59;;;;;;;204.40;32.17;;;3.40;99.90;;;;;;5093012;28;20071;-85
2022/12/21 03:45:04;;;;;;;167.07;25.88;;;3.40;99.90;;;;;;5074637;28;20131;-81
2022/12/21 03:48:02;;;;;;;151.43;24.48;;;3.40;99.90;;;;;;5089175;28;20193;-80
2022/12/21 03:50:51;;;;;;;236.02;33.22;;;3.40;99.90;;;;;;5072399;28;20056;-80
2022/12/21 03:53:43;;;;;;;242.98;35.78;;;3.40;99.90;;;;;;5058265;28;20056;-85
2022/12/21 03:56:34;;;;;;;233.50;31.60;;;3.40;99.90;;;;;;5097568;28;20045;-85
2022/12/21 03:59:20;;;;;;;216.07;35.42;;;3.40;99.90;;;;;;5092459;28;20087;-79
2022/12/21 04:02:28;;;;;;;153.82;27.23;;;3.40;99.90;;;;;;5095407;28;20116;-84
2022/12/21 04:05:30;;;;;;;137.73;24.75;;;3.40;99.90;;;;;;5090761;28;20059;-85
2022/12/21 04:08:17;;;;;;;241.27;35.97;;;3.40;99.90;;;;;;5072209;28;20051;-84
2022/12/21 04:11:04;;;;;;;187.18;31.02;;;3.40;99.90;;;;;;5091266;28;20067;-80
2022/12/21 04:13:51;;;;;;;176.45;29.05;;;3.40;99.90;;;;;;5089991;28;20134;-82
2022/12/21 04:16:37;;;;;;;174.68;29.05;;;3.50;99.90;;;;;;5089859;28;20130;-83
2022/12/21 04:28:42;;;;;;;144.80;26.85;;;3.50;99.90;;;;;;5071329;28;20048;-80
2022/12/21 04:31:28;;;;;;;225.43;35.20;;;3.50;99.90;;;;;;5072265;28;20503;-81
2022/12/21 04:34:15;;;;;;;200.25;31.98;;;3.60;99.90;;;;;;5089889;28;20118;-83
2022/12/21 04:40:06;;;;;;;179.85;29.08;;;3.60;99.90;;;;;;5095011;28;20602;-82
2022/12/21 04:42:52;;;;;;;213.23;31.45;;;3.60;99.90;;;;;;5095172;28;20036;-84
2022/12/21 04:45:39;;;;;;;177.13;29.15;;;3.60;99.90;;;;;;5077994;28;20059;-84
2022/12/21 04:48:25;;;;;;;191.27;30.70;;;3.70;99.90;;;;;;5075943;28;20130;-83
2022/12/21 04:51:14;;;;;;;248.32;34.22;;;3.70;99.90;;;;;;5079098;28;20050;-84
2022/12/21 04:54:02;;;;;;;204.35;28.45;;;3.70;99.90;;;;;;5075256;28;20446;-85
2022/12/21 04:56:48;;;;;;;234.32;32.08;;;3.80;99.90;;;;;;5082528;28;20062;-85
2022/12/21 04:59:35;;;;;;;274.65;36.05;;;3.80;99.90;;;;;;5075029;28;20097;-81
2022/12/21 05:02:22;;;;;;;233.93;30.60;;;3.80;99.90;;;;;;5095741;28;20056;-83
2022/12/21 05:05:08;;;;;;;278.52;35.40;;;3.90;99.90;;;;;;5093480;28;20052;-81
2022/12/21 05:07:54;;;;;;;238.38;32.97;;;3.90;99.90;;;;;;5073978;28;20075;-81
2022/12/21 05:10:40;;;;;;;218.82;30.77;;;3.90;99.90;;;;;;5080854;28;20434;-78
2022/12/21 05:13:27;;;;;;;206.48;28.27;;;3.90;99.90;;;;;;5092722;28;20052;-78
2022/12/21 05:16:16;;;;;;;198.82;29.52;;;3.90;99.90;;;;;;5092075;28;20040;-79
2022/12/21 05:19:02;;;;;;;252.02;33.08;;;3.90;99.90;;;;;;5077576;28;20052;-82
2022/12/21 05:21:49;;;;;;;182.07;31.88;;;4.00;99.90;;;;;;5079119;28;20109;-81
2022/12/21 05:24:35;;;;;;;188.25;30.20;;;4.00;99.90;;;;;;5061944;28;20078;-82
2022/12/21 05:27:21;;;;;;;205.63;31.10;;;4.00;99.90;;;;;;5097665;28;20044;-78
2022/12/21 05:30:08;;;;;;;235.73;34.15;;;4.00;99.90;;;;;;5092369;28;20476;-80
2022/12/21 05:32:55;;;;;;;232.52;34.15;;;4.00;99.90;;;;;;5092856;28;20062;-82
2022/12/21 05:35:41;;;;;;;324.73;41.28;;;4.00;99.90;;;;;;5077243;28;20116;-81
2022/12/21 05:38:28;;;;;;;259.02;35.72;;;4.00;99.90;;;;;;5077226;28;20073;-82
2022/12/21 05:41:16;;;;;;;270.00;33.22;;;4.00;99.90;;;;;;5075976;28;20052;-78
2022/12/21 05:44:02;;;;;;;213.00;32.92;;;4.00;99.90;;;;;;5077669;28;20079;-78
2022/12/21 05:46:48;;;;;;;255.38;36.17;;;4.00;99.90;;;;;;5095124;28;20193;-82
2022/12/21 05:49:34;;;;;;;257.67;34.85;;;4.00;99.90;;;;;;5091854;28;20056;-83
2022/12/21 05:52:21;;;;;;;352.17;43.33;;;4.00;99.90;;;;;;5095904;28;20093;-82
2022/12/21 05:55:07;;;;;;;313.85;38.20;;;4.00;99.90;;;;;;5074751;28;20480;-78
2022/12/21 05:57:54;;;;;;;335.30;42.20;;;4.00;99.90;;;;;;5059900;28;20519;-79
2022/12/21 06:00:40;;;;;;;314.85;36.22;;;4.00;99.90;;;;;;5073340;28;20517;-80
2022/12/21 06:03:27;;;;;;;350.67;39.45;;;4.00;99.90;;;;;;5073746;28;20173;-82
2022/12/21 06:06:15;;;;;;;406.83;44.50;;;4.00;99.90;;;;;;5095489;28;20393;-78
2022/12/21 06:09:01;;;;;;;301.83;35.15;;;4.00;99.90;;;;;;5091760;28;20052;-78
2022/12/21 06:11:48;;;;;;;249.68;33.05;;;4.00;99.90;;;;;;5091083;28;20048;-80
2022/12/21 06:14:34;;;;;;;275.08;34.30;;;4.00;99.90;;;;;;5094339;28;20135;-83
2022/12/21 06:17:21;;;;;;;332.85;38.63;;;4.00;99.90;;;;;;5062112;28;20047;-83
2022/12/21 06:20:07;;;;;;;310.30;39.30;;;3.90;99.90;;;;;;5090454;28;20048;-83
2022/12/21 06:22:54;;;;;;;365.98;41.45;;;4.00;99.90;;;;;;5096792;28;20048;-80
2022/12/21 06:25:40;;;;;;;387.08;44.40;;;3.90;99.90;;;;;;5059193;28;20047;-84
2022/12/21 06:28:27;;;;;;;349.58;39.53;;;3.90;99.90;;;;;;5091149;28;20118;-78
2022/12/21 06:31:13;;;;;;;356.83;42.20;;;3.90;99.90;;;;;;5073094;28;20499;-79
2022/12/21 06:34:00;;;;;;;312.58;38.53;;;3.90;99.90;;;;;;5059883;28;20109;-82
2022/12/21 06:36:47;;;;;;;376.95;47.80;;;3.90;99.90;;;;;;5081058;28;20499;-81
2022/12/21 06:39:33;;;;;;;313.85;40.22;;;4.00;99.90;;;;;;5093656;28;20086;-83
2022/12/21 06:42:19;;;;;;;327.63;39.42;;;4.00;99.90;;;;;;5090628;28;20070;-82
2022/12/21 06:45:06;;;;;;;300.25;39.90;;;4.00;99.90;;;;;;5091615;28;20052;-82
2022/12/21 06:47:55;;;;;;;295.90;40.35;;;4.00;99.90;;;;;;5072956;28;20488;-81
2022/12/21 06:50:41;;;;;;;317.83;43.50;;;4.00;99.90;;;;;;5092577;28;20044;-83
2022/12/21 06:53:30;;;;;;;339.13;42.55;;;4.00;99.90;;;;;;5076130;28;20052;-81
2022/12/21 06:56:19;;;;;;;310.15;41.30;;;4.00;99.90;;;;;;5073663;28;20438;-79
2022/12/21 06:59:05;;;;;;;283.00;37.00;;;4.10;99.90;;;;;;5095378;28;20048;-79
2022/12/21 07:01:51;;;;;;;282.45;37.65;;;4.10;99.90;;;;;;5072671;28;20043;-80
2022/12/21 07:04:38;;;;;;;244.75;37.30;;;4.10;99.90;;;;;;5072011;28;20044;-84
2022/12/21 07:07:24;;;;;;;219.32;35.67;;;4.10;99.90;;;;;;5094264;28;20051;-81
2022/12/21 07:10:10;;;;;;;279.48;40.15;;;4.10;99.90;;;;;;5089733;28;20059;-83
2022/12/21 07:12:56;;;;;;;227.30;36.10;;;4.20;99.90;;;;;;5090585;28;20070;-81
2022/12/21 07:15:42;;;;;;;304.58;43.92;;;4.10;99.90;;;;;;5090966;28;20051;-82
2022/12/21 07:18:29;;;;;;;268.42;39.70;;;4.10;99.90;;;;;;5064166;28;20077;-82
2022/12/21 07:21:17;;;;;;;286.13;42.20;;;4.10;99.90;;;;;;5075978;28;20094;-84
2022/12/21 07:24:03;;;;;;;334.48;44.70;;;4.10;99.90;;;;;;5090310;28;20145;-84
2022/12/21 07:26:50;;;;;;;237.30;36.45;;;4.10;99.90;;;;;;5072333;28;20404;-82
2022/12/21 07:29:36;;;;;;;162.48;31.85;;;4.10;99.90;;;;;;5058505;28;20052;-83
2022/12/21 07:32:22;;;;;;;210.32;35.03;;;4.10;99.90;;;;;;5089742;28;20041;-83
2022/12/21 07:35:09;;;;;;;215.00;35.42;;;4.10;99.90;;;;;;5096342;28;20048;-83
2022/12/21 07:37:55;;;;;;;302.08;45.03;;;4.10;99.90;;;;;;5090129;28;20066;-80
2022/12/21 07:40:41;;;;;;;181.95;33.67;;;4.10;99.90;;;;;;5072773;28;20109;-84
2022/12/21 07:43:29;;;;;;;224.57;38.85;;;4.10;99.90;;;;;;5094880;28;20040;-80
2022/12/21 07:46:16;;;;;;;209.05;39.35;;;4.20;99.90;;;;;;5091633;28;20045;-81
2022/12/21 07:49:02;;;;;;;220.38;40.70;;;4.20;99.90;;;;;;5086607;28;20051;-84
2022/12/21 07:51:49;;;;;;;206.57;40.60;;;4.20;99.90;;;;;;5075732;28;20052;-81
2022/12/21 07:54:35;;;;;;;275.13;46.10;;;4.30;99.90;;;;;;5089892;28;20052;-79
2022/12/21 07:57:21;;;;;;;299.35;47.70;;;4.30;99.90;;;;;;5090731;28;20051;-82
2022/12/21 08:00:09;;;;;;;315.15;48.38;;;4.40;99.90;;;;;;5057259;28;20062;-84
2022/12/21 08:02:55;;;;;;;377.05;54.75;;;4.40;99.90;;;;;;5072100;28;20079;-83
2022/12/21 08:05:41;;;;;;;356.00;55.53;;;4.40;99.90;;;;;;5074144;28;20083;-81
2022/12/21 08:08:27;;;;;;;248.15;46.20;;;4.40;99.90;;;;;;5096350;28;20044;-84
2022/12/21 08:11:17;;;;;;;312.20;52.65;;;4.50;99.90;;;;;;5081278;28;20052;-82
2022/12/21 08:14:03;;;;;;;397.30;58.72;;;4.50;99.90;;;;;;5090250;28;20058;-82
2022/12/21 08:16:50;;;;;;;284.95;48.85;;;4.50;99.90;;;;;;5095283;28;20056;-84
2022/12/21 08:19:36;;;;;;;308.45;50.90;;;4.50;99.90;;;;;;5080177;28;20047;-84
2022/12/21 08:22:23;;;;;;;344.50;55.25;;;4.60;99.90;;;;;;5074778;28;20059;-84
2022/12/21 08:25:10;;;;;;;381.60;54.08;;;4.60;99.90;;;;;;5075420;28;20055;-82
2022/12/21 08:27:56;;;;;;;310.27;52.22;;;4.70;99.90;;;;;;5092323;28;20055;-83
2022/12/21 08:30:43;;;;;;;319.70;51.30;;;4.70;99.90;;;;;;5093181;28;20055;-85
2022/12/21 08:33:29;;;;;;;261.10;46.22;;;4.70;99.90;;;;;;5098770;28;20052;-80
2022/12/21 08:36:20;;;;;;;295.00;46.90;;;4.70;99.90;;;;;;5099801;28;20048;-81
2022/12/21 08:39:06;;;;;;;366.90;54.45;;;4.70;99.90;;;;;;5092551;28;20519;-81
2022/12/21 08:41:52;;;;;;;355.52;53.38;;;4.70;99.90;;;;;;5092833;28;20125;-82
2022/12/21 08:44:38;;;;;;;353.30;52.47;;;4.70;99.90;;;;;;5076048;28;20503;-80
2022/12/21 08:47:25;;;;;;;388.98;58.83;;;4.80;99.90;;;;;;5097470;28;20051;-81
2022/12/21 08:50:11;;;;;;;449.67;63.58;;;4.80;99.90;;;;;;5074140;28;20385;-81
2022/12/21 08:52:57;;;;;;;448.25;59.30;;;4.80;99.90;;;;;;5073971;28;20079;-81
2022/12/21 08:55:43;;;;;;;413.55;59.75;;;4.90;99.90;;;;;;5073209;28;20651;-82
2022/12/21 08:58:30;;;;;;;271.95;44.55;;;4.80;99.90;;;;;;5087801;28;20052;-80
2022/12/21 09:01:20;;;;;;;238.85;43.95;;;4.80;99.90;;;;;;5078800;28;20059;-81
2022/12/21 09:04:07;;;;;;;227.30;44.00;;;4.80;99.90;;;;;;5092429;28;20047;-82
2022/12/21 09:06:53;;;;;;;258.48;45.25;;;4.90;99.90;;;;;;5074201;28;20094;-82
2022/12/21 09:09:39;;;;;;;338.65;54.65;;;4.90;99.90;;;;;;5090740;28;20069;-86
2022/12/21 09:12:27;;;;;;;282.70;52.05;;;4.90;99.90;;;;;;5082669;28;20054;-80
2022/12/21 09:15:13;;;;;;;234.07;46.83;;;4.90;99.90;;;;;;5093602;28;20047;-81
2022/12/21 09:18:00;;;;;;;136.00;38.13;;;5.00;99.90;;;;;;5074179;28;20060;-82
2022/12/21 09:20:46;;;;;;;176.13;43.60;;;5.00;99.90;;;;;;5099511;28;20112;-82
2022/12/21 09:23:32;;;;;;;145.43;41.38;;;5.00;99.90;;;;;;5092698;28;20126;-84
2022/12/21 09:26:20;;;;;;;152.40;39.10;;;5.00;99.90;;;;;;5101203;28;20139;-84
2022/12/21 09:29:08;;;;;;;131.68;37.30;;;5.00;99.90;;;;;;5085324;28;20542;-81
2022/12/21 09:31:55;;;;;;;117.55;35.13;;;5.00;99.90;;;;;;5093016;28;20082;-83
2022/12/21 09:34:41;;;;;;;116.25;35.13;;;5.00;99.90;;;;;;5092262;28;20048;-81
2022/12/21 09:37:28;;;;;;;124.57;35.17;;;5.00;99.90;;;;;;5074584;28;20044;-81
2022/12/21 09:40:17;;;;;;;124.40;36.88;;;5.00;99.90;;;;;;5097300;28;20139;-83
2022/12/21 09:43:24;;;;;;;139.25;39.13;;;5.20;99.90;;;;;;5080365;28;20073;-83
2022/12/21 09:46:16;;;;;;;131.45;38.67;;;5.40;99.90;;;;;;5098218;28;20126;-83
2022/12/21 09:49:07;;;;;;;109.82;36.10;;;5.70;99.90;;;;;;5085785;28;20052;-84
2022/12/21 09:51:56;;;;;;;106.20;35.25;;;5.80;99.90;;;;;;5092175;28;20050;-84
2022/12/21 09:54:51;;;;;;;101.45;33.95;;;6.10;99.90;;;;;;5098441;28;20083;-84
2022/12/21 09:57:37;;;;;;;93.65;32.53;;;6.20;99.90;;;;;;5077688;28;20048;-84
2022/12/21 10:00:29;;;;;;;90.40;33.97;;;6.30;99.90;;;;;;5093738;28;20510;-83
2022/12/21 10:03:24;;;;;;;103.28;36.08;;;6.50;99.90;;;;;;5075090;28;20052;-85
2022/12/21 10:06:39;;;;;;;97.80;36.22;;;6.60;99.90;;;;;;5094607;28;20117;-83
2022/12/21 10:10:04;;;;;;;82.50;33.60;;;6.90;99.90;;;;;;5083259;28;20423;-83
2022/12/21 10:13:01;;;;;;;98.53;33.03;;;7.10;99.90;;;;;;5096657;28;20077;-81
2022/12/21 10:16:24;;;;;;;79.10;28.98;;;7.40;99.90;;;;;;5078960;28;20056;-80
2022/12/21 10:19:24;;;;;;;72.18;29.58;;;7.50;99.90;;;;;;5084442;28;20048;-84
2022/12/21 10:22:35;;;;;;;83.43;31.83;;;7.80;99.90;;;;;;5103044;28;20044;-84
2022/12/21 10:25:24;;;;;;;78.15;30.20;;;8.10;99.90;;;;;;5101048;28;20044;-84
2022/12/21 10:28:35;;;;;;;74.45;30.02;;;8.30;99.90;;;;;;5096677;28;20154;-80
2022/12/21 10:31:45;;;;;;;71.13;28.77;;;8.10;99.90;;;;;;5098204;28;20055;-79
2022/12/21 10:34:36;;;;;;;73.47;28.10;;;7.80;99.90;;;;;;5092271;28;20072;-79
2022/12/21 10:37:23;;;;;;;73.65;28.55;;;7.50;99.90;;;;;;5072344;28;20135;-80
2022/12/21 10:40:11;;;;;;;60.78;28.75;;;7.30;99.90;;;;;;5077813;28;20048;-82
2022/12/21 10:42:58;;;;;;;78.32;28.83;;;7.30;99.90;;;;;;5059117;28;20047;-81
2022/12/21 10:45:44;;;;;;;81.90;30.58;;;7.30;99.90;;;;;;5071987;28;20094;-81
2022/12/21 10:48:31;;;;;;;61.63;27.38;;;7.30;99.90;;;;;;5073581;28;20054;-83
2022/12/21 10:51:27;;;;;;;61.28;25.80;;;7.30;99.90;;;;;;5080616;28;20040;-80
2022/12/21 10:54:23;;;;;;;62.55;27.05;;;7.30;99.90;;;;;;5058497;28;20047;-79
2022/12/21 10:57:09;;;;;;;61.10;25.65;;;7.40;99.90;;;;;;5075832;28;20081;-83
2022/12/21 11:00:03;;;;;;;60.15;27.20;;;7.50;99.90;;;;;;5094937;28;20051;-82
2022/12/21 11:02:52;;;;;;;55.53;23.85;;;7.70;99.90;;;;;;5091388;28;20156;-79
2022/12/21 11:05:41;;;;;;;57.55;25.70;;;7.80;99.90;;;;;;5091033;28;20098;-80
2022/12/21 11:08:31;;;;;;;49.90;22.58;;;7.90;99.90;;;;;;5091360;28;20492;-80
2022/12/21 11:11:31;;;;;;;46.65;20.80;;;8.20;99.90;;;;;;5078868;28;20056;-82
2022/12/21 11:14:17;;;;;;;44.88;21.67;;;8.50;99.90;;;;;;5072385;28;20487;-83
2022/12/21 11:17:04;;;;;;;49.35;21.13;;;8.70;99.90;;;;;;5076238;28;20055;-80
2022/12/21 11:20:15;;;;;;;42.20;20.48;;;8.60;99.90;;;;;;5059094;28;20072;-81
2022/12/21 11:23:02;;;;;;;39.25;19.63;;;8.50;99.90;;;;;;5089573;28;20044;-80
2022/12/21 11:25:48;;;;;;;49.40;19.67;;;8.70;99.90;;;;;;5075939;28;20047;-81
2022/12/21 11:28:34;;;;;;;42.75;19.77;;;8.80;99.90;;;;;;5090881;28;20044;-81
2022/12/21 11:31:28;;;;;;;38.90;19.50;;;9.20;99.90;;;;;;5101231;28;20055;-83
2022/12/21 11:34:34;;;;;;;34.00;17.55;;;9.70;99.90;;;;;;5072334;28;20403;-81
2022/12/21 11:37:35;;;;;;;42.58;17.83;;;10.10;99.90;;;;;;5084252;28;20056;-81
2022/12/21 11:40:26;;;;;;;34.20;16.85;;;10.40;99.90;;;;;;5068246;28;20047;-80
2022/12/21 11:43:16;;;;;;;31.00;14.80;;;10.50;99.90;;;;;;5079218;28;20056;-83
2022/12/21 11:46:10;;;;;;;28.08;16.02;;;10.80;99.90;;;;;;5097389;28;20121;-83
2022/12/21 11:49:23;;;;;;;26.88;14.05;;;11.00;99.90;;;;;;5089910;28;20192;-82
2022/12/21 11:52:27;;;;;;;35.63;17.70;;;10.80;99.90;;;;;;5080277;28;20101;-84
2022/12/21 11:55:22;;;;;;;39.88;18.80;;;10.60;99.90;;;;;;5080189;28;20051;-80
2022/12/21 11:58:26;;;;;;;29.33;15.27;;;10.50;99.90;;;;;;5096773;28;20048;-84
2022/12/21 12:01:23;;;;;;;28.02;13.65;;;10.50;99.90;;;;;;5095119;28;20101;-80
2022/12/21 12:04:28;;;;;;;31.73;14.65;;;10.30;99.90;;;;;;5080709;28;20040;-81
2022/12/21 12:07:46;;;;;;;30.52;13.80;;;10.20;99.90;;;;;;5094609;28;20407;-85
2022/12/21 12:10:56;;;;;;;29.27;13.85;;;10.30;99.90;;;;;;5074309;28;20415;-80
2022/12/21 12:14:07;;;;;;;27.77;13.25;;;10.40;99.90;;;;;;5079281;28;20048;-85
2022/12/21 12:17:01;;;;;;;28.83;13.23;;;10.60;99.90;;;;;;5079869;28;20104;-82
2022/12/21 12:20:20;;;;;;;32.42;12.75;;;11.20;99.90;;;;;;5096104;28;20138;-80
2022/12/21 12:23:15;;;;;;;31.58;13.38;;;12.00;99.90;;;;;;5063811;28;20087;-83
2022/12/21 12:26:27;;;;;;;28.25;11.52;;;12.50;99.90;;;;;;5079932;28;20548;-80
2022/12/21 12:29:32;;;;;;;26.77;11.40;;;13.00;99.90;;;;;;5062333;28;20369;-80
2022/12/21 12:32:21;;;;;;;25.40;10.93;;;13.50;99.90;;;;;;5069106;28;20063;-83
2022/12/21 12:35:23;;;;;;;21.60;9.88;;;13.70;99.90;;;;;;5083933;28;20282;-84
2022/12/21 12:38:24;;;;;;;21.58;10.10;;;13.70;99.90;;;;;;5098820;28;20126;-81
2022/12/21 12:41:16;;;;;;;27.30;10.85;;;13.70;99.90;;;;;;5100289;28;20491;-83
2022/12/21 12:44:24;;;;;;;27.20;12.50;;;13.50;99.90;;;;;;5093755;28;20075;-83
2022/12/21 12:47:28;;;;;;;21.20;9.70;;;13.40;99.90;;;;;;5076196;28;20059;-82
2022/12/21 12:50:22;;;;;;;23.15;9.45;;;13.40;99.90;;;;;;5094445;28;20138;-83
2022/12/21 12:53:09;;;;;;;23.50;11.05;;;13.40;99.90;;;;;;5097501;28;20060;-85
2022/12/21 12:56:16;;;;;;;24.50;10.85;;;13.30;99.90;;;;;;5092486;28;20048;-81
2022/12/21 12:59:15;;;;;;;26.75;12.15;;;12.90;99.90;;;;;;5074294;28;20052;-82
2022/12/21 13:02:02;;;;;;;24.10;12.38;;;12.00;99.90;;;;;;5090861;28;20135;-81
2022/12/21 13:05:09;;;;;;;23.67;12.98;;;11.20;99.90;;;;;;5092571;28;20506;-83
2022/12/21 13:08:16;;;;;;;27.13;12.85;;;10.90;99.90;;;;;;5097768;28;20043;-81
2022/12/21 13:11:10;;;;;;;34.85;14.57;;;10.60;99.90;;;;;;5091844;28;20500;-81
2022/12/21 13:14:34;;;;;;;30.17;13.10;;;10.10;99.90;;;;;;5093911;28;20434;-80
2022/12/21 13:17:45;;;;;;;28.25;14.02;;;9.70;99.90;;;;;;5074532;28;20083;-80
2022/12/21 13:20:33;;;;;;;35.58;14.77;;;9.30;99.90;;;;;;5096253;28;20044;-82
2022/12/21 13:23:38;;;;;;;36.28;15.60;;;9.00;99.90;;;;;;5061767;28;20495;-82
2022/12/21 13:26:39;;;;;;;36.67;15.95;;;8.80;99.90;;;;;;5093509;28;20063;-81
2022/12/21 13:29:31;;;;;;;34.38;15.88;;;8.70;99.90;;;;;;5092025;28;20051;-80
2022/12/21 13:32:22;;;;;;;36.80;18.38;;;8.50;99.90;;;;;;5074396;28;20135;-82
2022/12/21 13:35:27;;;;;;;35.17;19.00;;;8.40;99.90;;;;;;5074531;28;20608;-85
2022/12/21 13:38:21;;;;;;;34.38;18.23;;;8.30;99.90;;;;;;5092475;28;20048;-82
2022/12/21 13:41:14;;;;;;;39.88;21.05;;;8.20;99.90;;;;;;5074082;28;20048;-82
2022/12/21 13:44:26;;;;;;;44.45;20.50;;;8.10;99.90;;;;;;5077213;28;20040;-84
2022/12/21 13:47:14;;;;;;;41.83;20.77;;;8.00;99.90;;;;;;5074079;28;20059;-81
2022/12/21 13:50:27;;;;;;;37.60;20.13;;;7.90;99.90;;;;;;5094744;28;20051;-82
2022/12/21 13:53:22;;;;;;;40.78;21.60;;;7.80;99.90;;;;;;5092297;28;20549;-81
2022/12/21 13:56:23;;;;;;;41.75;20.17;;;7.70;99.90;;;;;;5074466;28;20052;-83
2022/12/21 13:59:16;;;;;;;39.30;21.95;;;7.70;99.90;;;;;;5074438;28;20487;-81
2022/12/21 14:02:14;;;;;;;40.90;21.77;;;7.70;99.90;;;;;;5078021;28;20376;-83
2022/12/21 14:05:18;;;;;;;36.72;20.20;;;7.60;99.90;;;;;;5096405;28;20106;-81
2022/12/21 14:08:23;;;;;;;38.28;20.33;;;7.60;99.90;;;;;;5079411;28;20136;-81
2022/12/21 14:11:45;;;;;;;40.55;21.40;;;7.60;99.90;;;;;;5073381;28;20384;-79
2022/12/21 14:14:47;;;;;;;41.47;20.05;;;7.60;99.90;;;;;;5009455;28;20149;-85
2022/12/21 14:17:42;;;;;;;35.15;20.05;;;7.50;99.90;;;;;;5079910;28;20520;-80
2022/12/21 14:20:34;;;;;;;39.20;20.25;;;7.60;99.90;;;;;;5091406;28;20135;-83
2022/12/21 14:23:29;;;;;;;35.55;17.88;;;7.50;99.90;;;;;;5073738;28;20044;-81
2022/12/21 14:26:56;;;;;;;38.38;18.25;;;7.50;99.90;;;;;;5074260;28;20057;-84
2022/12/21 14:29:44;;;;;;;45.10;20.58;;;7.60;99.90;;;;;;5091611;28;20043;-82
2022/12/21 14:32:30;;;;;;;34.58;19.38;;;7.60;99.90;;;;;;5060159;28;20633;-84
2022/12/21 14:35:36;;;;;;;38.30;19.52;;;7.50;99.90;;;;;;5072708;28;20052;-82
2022/12/21 14:38:22;;;;;;;35.70;18.70;;;7.60;99.90;;;;;;5091264;28;20069;-84
2022/12/21 14:41:12;;;;;;;32.20;19.58;;;7.60;99.90;;;;;;5072843;28;20150;-83
2022/12/21 14:44:10;;;;;;;36.42;19.92;;;7.60;99.90;;;;;;5060338;28;20048;-82
2022/12/21 14:47:08;;;;;;;33.75;20.02;;;7.60;99.90;;;;;;5067056;28;20048;-85